TAF EGFF
EGFF 072301Z 0800/0824 26026G40KT 9999 SCT028 TEMPO 0800/0806 6000 SHRA PROB30 TEMPO 0800/0806 1400 +SHRA BKN014CB PROB30 TEMPO 0800/0806 27032G50KT PROB40 TEMPO 0809/0821 4000 RA SHRA BKN014=
METAR EGFF
WC EGFF
WS EGFF
WV EGFF